createdAt,value
2019-02-25T00:02:17.316Z,84.14
2019-02-25T00:04:44.233Z,83.76
2019-02-25T00:07:11.137Z,83.90
2019-02-25T00:09:38.092Z,81.87
2019-02-25T00:12:04.991Z,80.73
2019-02-25T00:14:31.957Z,81.38
2019-02-25T00:16:58.863Z,83.24
2019-02-25T00:19:25.798Z,83.72
2019-02-25T00:21:52.675Z,84.62
2019-02-25T00:24:19.602Z,84.42
2019-02-25T00:26:46.533Z,82.04
2019-02-25T00:29:13.534Z,82.05
2019-02-25T00:31:40.434Z,82.32
2019-02-25T00:34:07.360Z,82.80
2019-02-25T00:36:34.276Z,84.21
2019-02-25T00:39:01.233Z,84.67
2019-02-25T00:41:28.132Z,82.70
2019-02-25T00:43:55.051Z,84.10
2019-02-25T00:46:21.932Z,83.86
2019-02-25T00:48:48.883Z,83.61
2019-02-25T00:51:15.786Z,84.37
2019-02-25T00:53:42.709Z,85.00
2019-02-25T00:56:09.604Z,85.01
2019-02-25T00:58:36.532Z,85.31
2019-02-25T01:01:03.434Z,85.49
2019-02-25T01:03:30.353Z,84.26
2019-02-25T01:05:57.222Z,84.38
2019-02-25T01:08:24.167Z,85.14
2019-02-25T01:10:51.095Z,84.42
2019-02-25T01:13:18.060Z,83.63
2019-02-25T01:15:44.939Z,83.96
2019-02-25T01:18:11.838Z,84.36
2019-02-25T01:20:38.805Z,84.65
2019-02-25T01:23:05.675Z,85.89
2019-02-25T01:25:32.597Z,87.32
2019-02-25T01:27:59.596Z,87.51
2019-02-25T01:30:26.510Z,86.49
2019-02-25T01:32:53.434Z,87.06
2019-02-25T01:35:20.367Z,87.14
2019-02-25T01:37:47.265Z,88.21
2019-02-25T01:40:14.197Z,87.99
2019-02-25T01:42:41.104Z,86.57
2019-02-25T01:45:09.313Z,86.36
2019-02-25T01:47:36.199Z,87.32
2019-02-25T01:50:03.669Z,88.09
2019-02-25T01:52:30.561Z,87.06
2019-02-25T01:54:57.467Z,88.38
2019-02-25T01:57:24.454Z,88.67
2019-02-25T01:59:51.384Z,88.20
2019-02-25T02:02:18.271Z,88.78
2019-02-25T02:04:45.238Z,86.02
2019-02-25T02:07:12.168Z,87.48
2019-02-25T02:09:39.104Z,87.92
2019-02-25T02:12:05.986Z,88.47
2019-02-25T02:14:32.908Z,88.99
2019-02-25T02:16:59.846Z,88.25
2019-02-25T02:19:26.820Z,88.35
2019-02-25T02:21:53.715Z,89.06
2019-02-25T02:24:20.666Z,88.84
2019-02-25T02:26:47.561Z,87.33
2019-02-25T02:29:14.507Z,89.09
2019-02-25T02:31:41.445Z,88.74
2019-02-25T02:34:08.374Z,88.89
2019-02-25T02:36:35.267Z,88.50
2019-02-25T02:39:02.853Z,88.48
2019-02-25T02:41:52.362Z,88.39
2019-02-25T02:44:19.319Z,87.17
2019-02-25T02:47:28.503Z,88.25
2019-02-25T02:49:55.507Z,89.57
2019-02-25T02:52:22.424Z,89.72
2019-02-25T02:54:49.388Z,90.71
2019-02-25T02:57:16.277Z,91.35
2019-02-25T02:59:43.188Z,92.14
2019-02-25T03:02:10.093Z,92.96
2019-02-25T03:04:37.001Z,93.07
2019-02-25T03:07:03.872Z,92.29
2019-02-25T03:09:30.794Z,90.25
2019-02-25T03:11:57.694Z,88.61
2019-02-25T03:14:24.581Z,87.76
2019-02-25T03:16:51.514Z,87.15
2019-02-25T03:19:18.406Z,88.82
2019-02-25T03:21:45.307Z,90.27
2019-02-25T03:24:12.188Z,91.33
2019-02-25T03:26:39.092Z,91.73
2019-02-25T03:29:06.024Z,91.71
2019-02-25T03:31:32.964Z,91.22
2019-02-25T03:33:59.897Z,91.88
2019-02-25T03:36:26.814Z,92.05
2019-02-25T03:38:53.691Z,92.90
2019-02-25T03:41:20.621Z,92.95
2019-02-25T03:43:47.509Z,93.00
2019-02-25T03:46:14.438Z,93.95
2019-02-25T03:48:41.331Z,94.30
2019-02-25T03:51:08.269Z,93.34
2019-02-25T03:53:35.202Z,92.10
2019-02-25T03:56:02.309Z,91.19
2019-02-25T03:58:29.218Z,90.96
2019-02-25T04:00:56.132Z,92.25
2019-02-25T04:03:23.045Z,92.81
2019-02-25T04:05:49.976Z,92.95
2019-02-25T04:08:16.896Z,93.95
2019-02-25T04:10:43.841Z,94.54
2019-02-25T04:13:10.748Z,95.14
2019-02-25T04:15:40.870Z,94.62
2019-02-25T04:18:07.752Z,95.38
2019-02-25T04:20:34.701Z,95.16
2019-02-25T04:23:01.603Z,94.24
2019-02-25T04:25:28.536Z,92.80
2019-02-25T04:27:55.484Z,92.65
2019-02-25T04:30:22.445Z,93.45
2019-02-25T04:32:49.358Z,91.96
2019-02-25T04:35:16.312Z,90.59
2019-02-25T04:37:43.261Z,90.57
2019-02-25T04:40:11.336Z,89.95
2019-02-25T04:42:38.290Z,89.56
2019-02-25T04:45:08.397Z,90.49
2019-02-25T04:47:35.340Z,91.66
2019-02-25T04:50:02.388Z,92.87
2019-02-25T04:52:29.306Z,93.27
2019-02-25T04:54:56.247Z,93.66
2019-02-25T04:57:23.160Z,94.48
2019-02-25T04:59:50.032Z,95.01
2019-02-25T05:02:17.002Z,94.47
2019-02-25T05:04:43.891Z,94.86
2019-02-25T05:07:10.878Z,94.64
2019-02-25T05:09:37.773Z,95.06
2019-02-25T05:12:04.699Z,94.34
2019-02-25T05:14:31.636Z,95.56
2019-02-25T05:16:58.586Z,95.01
2019-02-25T05:19:25.540Z,96.04
2019-02-25T05:21:52.441Z,94.75
2019-02-25T05:24:19.382Z,92.80
2019-02-25T05:26:46.311Z,93.80
2019-02-25T05:29:13.247Z,94.97
2019-02-25T05:31:40.255Z,94.81
2019-02-25T05:34:07.153Z,94.80
2019-02-25T05:36:34.081Z,95.17
2019-02-25T05:39:00.967Z,95.25
2019-02-25T05:41:27.900Z,95.42
2019-02-25T05:43:54.787Z,93.86
2019-02-25T05:46:21.720Z,92.16
2019-02-25T05:48:48.611Z,93.91
2019-02-25T05:51:15.555Z,94.38
2019-02-25T05:53:42.432Z,94.55
2019-02-25T05:56:09.366Z,94.23
2019-02-25T05:58:36.421Z,95.17
2019-02-25T06:01:03.338Z,96.19
2019-02-25T06:03:30.258Z,96.55
2019-02-25T06:05:57.181Z,97.15
2019-02-25T06:08:24.122Z,97.11
2019-02-25T06:10:51.021Z,96.60
2019-02-25T06:13:17.968Z,96.87
2019-02-25T06:15:44.869Z,94.65
2019-02-25T06:18:11.847Z,93.79
2019-02-25T06:20:38.765Z,94.49
2019-02-25T06:23:05.710Z,94.84
2019-02-25T06:25:32.595Z,96.03
2019-02-25T06:27:59.595Z,96.64
2019-02-25T06:30:26.514Z,95.32
2019-02-25T06:32:53.476Z,94.46
2019-02-25T06:35:20.389Z,95.68
2019-02-25T06:37:47.334Z,94.13
2019-02-25T06:40:15.749Z,94.10
2019-02-25T06:42:42.988Z,95.20
2019-02-25T06:45:11.701Z,96.21
2019-02-25T06:47:38.646Z,95.21
2019-02-25T06:50:05.686Z,95.67
2019-02-25T06:52:32.603Z,94.61
2019-02-25T06:54:59.549Z,94.44
2019-02-25T06:57:26.492Z,95.00
2019-02-25T06:59:53.400Z,95.66
2019-02-25T07:02:20.321Z,95.91
2019-02-25T07:04:55.654Z,96.14
2019-02-25T07:07:48.163Z,94.30
2019-02-25T07:10:33.527Z,93.28
2019-02-25T07:13:08.563Z,94.50
2019-02-25T07:15:48.162Z,94.87
2019-02-25T07:18:33.150Z,95.03
2019-02-25T07:21:13.290Z,95.11
2019-02-25T07:23:48.779Z,95.19
2019-02-25T07:26:35.142Z,95.71
2019-02-25T07:29:08.568Z,96.04
2019-02-25T07:31:53.949Z,94.65
2019-02-25T07:34:43.047Z,95.48
2019-02-25T07:37:29.596Z,93.80
2019-02-25T07:40:12.293Z,93.94
2019-02-25T07:42:54.310Z,93.00
2019-02-25T07:45:46.652Z,92.65
2019-02-25T07:48:42.439Z,91.58
2019-02-25T07:51:32.076Z,89.46
2019-02-25T07:54:10.154Z,88.83
2019-02-25T07:57:11.785Z,88.04
2019-02-25T08:00:04.182Z,86.08
2019-02-25T08:02:40.545Z,87.02
2019-02-25T08:05:15.952Z,83.02
2019-02-25T08:08:05.458Z,81.24
2019-02-25T08:10:54.287Z,80.63
2019-02-25T08:13:39.994Z,80.65
2019-02-25T08:16:24.999Z,78.99
2019-02-25T08:19:29.475Z,79.09
2019-02-25T08:22:27.970Z,77.52
2019-02-25T08:25:06.198Z,76.53
2019-02-25T08:27:49.092Z,76.14
2019-02-25T08:30:30.608Z,73.16
2019-02-25T08:33:19.986Z,71.53
2019-02-25T08:37:02.171Z,71.07
2019-02-25T08:39:34.769Z,71.04
2019-02-25T08:42:19.122Z,70.64
2019-02-25T08:45:09.012Z,70.68
2019-02-25T08:48:02.799Z,70.97
2019-02-25T08:50:30.204Z,71.37
2019-02-25T08:52:57.117Z,69.17
2019-02-25T08:55:24.068Z,70.10
2019-02-25T08:57:50.978Z,69.09
2019-02-25T09:00:17.915Z,68.17
2019-02-25T09:02:44.810Z,68.16
2019-02-25T09:05:12.461Z,67.05
2019-02-25T09:07:39.379Z,67.85
2019-02-25T09:12:37.599Z,67.49
2019-02-25T09:15:05.782Z,66.75
2019-02-25T09:17:41.511Z,67.43
2019-02-25T09:20:08.705Z,66.27
2019-02-25T09:22:35.545Z,65.72
2019-02-25T09:25:02.497Z,64.83
2019-02-25T09:27:29.422Z,63.59
2019-02-25T09:29:56.386Z,62.97
2019-02-25T09:32:23.301Z,62.37
2019-02-25T09:34:50.248Z,64.26
2019-02-25T09:37:17.147Z,62.71
2019-02-25T09:39:44.089Z,61.00
2019-02-25T09:42:11.139Z,59.36
2019-02-25T09:44:38.126Z,58.61
2019-02-25T09:47:05.238Z,58.53
2019-02-25T09:49:32.446Z,59.25
2019-02-25T09:51:59.664Z,58.76
2019-02-25T09:54:26.609Z,56.57
2019-02-25T09:56:53.663Z,54.77
2019-02-25T09:59:20.564Z,55.13
2019-02-25T10:01:47.509Z,53.98
2019-02-25T10:04:14.423Z,56.23
2019-02-25T10:06:41.373Z,54.30
2019-02-25T10:09:08.283Z,55.76
2019-02-25T10:11:35.330Z,52.19
2019-02-25T10:14:02.250Z,51.66
2019-02-25T10:16:29.183Z,50.65
2019-02-25T10:18:56.097Z,52.22
2019-02-25T10:21:23.042Z,50.04
2019-02-25T10:23:49.971Z,51.55
2019-02-25T10:26:16.900Z,53.46
2019-02-25T10:28:43.819Z,51.30
2019-02-25T10:31:12.727Z,52.91
2019-02-25T10:36:07.278Z,50.64
2019-02-25T10:38:34.193Z,51.72
2019-02-25T10:41:01.128Z,51.46
2019-02-25T10:43:29.550Z,49.91
2019-02-25T10:45:56.900Z,50.10
2019-02-25T10:48:25.759Z,50.75
2019-02-25T10:50:56.129Z,51.34
2019-02-25T10:53:22.105Z,51.48
2019-02-25T10:55:59.942Z,51.68
2019-02-25T10:58:27.481Z,48.55
2019-02-25T11:00:55.700Z,49.74
2019-02-25T11:03:22.666Z,49.69
2019-02-25T11:05:49.575Z,47.23
2019-02-25T11:08:18.832Z,47.47
2019-02-25T11:10:53.211Z,47.73
2019-02-25T11:13:20.913Z,48.16
2019-02-25T11:15:48.370Z,46.28
2019-02-25T11:18:17.461Z,46.15
2019-02-25T11:20:44.296Z,46.09
2019-02-25T11:23:12.829Z,45.34
2019-02-25T11:25:40.065Z,47.20
2019-02-25T11:28:09.210Z,47.38
2019-02-25T11:30:36.075Z,44.59
2019-02-25T11:33:03.068Z,47.02
2019-02-25T11:35:29.986Z,45.92
2019-02-25T11:37:58.972Z,44.44
2019-02-25T11:40:26.479Z,44.80
2019-02-25T11:42:54.691Z,46.53
2019-02-25T11:45:21.599Z,41.60
2019-02-25T11:47:48.677Z,39.36
2019-02-25T11:50:15.796Z,37.78
2019-02-25T11:52:42.738Z,38.39
2019-02-25T11:55:10.221Z,39.12
2019-02-25T11:57:37.166Z,42.25
2019-02-25T12:00:10.783Z,42.49
2019-02-25T12:02:37.769Z,42.61
2019-02-25T12:05:05.450Z,41.73
2019-02-25T12:07:32.398Z,40.86
2019-02-25T12:09:59.314Z,41.50
2019-02-25T12:12:26.463Z,41.63
2019-02-25T12:14:53.409Z,38.05
2019-02-25T12:17:20.359Z,41.07
2019-02-25T12:19:47.330Z,39.19
2019-02-25T12:22:14.533Z,39.74
2019-02-25T12:24:41.439Z,39.26
2019-02-25T12:27:08.480Z,39.13
2019-02-25T12:29:35.526Z,37.34
2019-02-25T12:32:02.652Z,35.62
2019-02-25T12:34:29.623Z,40.36
2019-02-25T12:36:56.580Z,36.87
2019-02-25T12:39:23.519Z,37.79
2019-02-25T12:41:50.427Z,37.41
2019-02-25T12:44:17.589Z,36.96
2019-02-25T12:46:44.623Z,35.86
2019-02-25T12:49:11.575Z,34.31
2019-02-25T12:51:38.484Z,36.07
2019-02-25T12:54:05.554Z,35.58
2019-02-25T12:56:32.556Z,34.48
2019-02-25T12:58:59.489Z,34.41
2019-02-25T13:01:26.448Z,36.17
2019-02-25T13:03:53.808Z,33.64
2019-02-25T13:06:20.749Z,33.49
2019-02-25T13:08:47.683Z,32.73
2019-02-25T13:11:14.615Z,33.21
2019-02-25T13:13:41.543Z,34.81
2019-02-25T13:16:08.461Z,31.81
2019-02-25T13:18:35.450Z,34.44
2019-02-25T13:21:02.354Z,34.89
2019-02-25T13:23:29.429Z,33.94
2019-02-25T13:25:56.342Z,32.78
2019-02-25T13:28:24.177Z,32.03
2019-02-25T13:30:52.104Z,31.22
2019-02-25T13:33:19.044Z,31.79
2019-02-25T13:35:45.977Z,33.60
2019-02-25T13:38:13.624Z,33.48
2019-02-25T13:40:40.537Z,34.07
2019-02-25T13:43:07.474Z,32.26
2019-02-25T13:45:34.429Z,33.75
2019-02-25T13:48:01.353Z,32.24
2019-02-25T13:50:28.319Z,34.30
2019-02-25T13:52:55.242Z,32.25
2019-02-25T13:55:22.217Z,33.87
2019-02-25T13:57:49.196Z,34.29
2019-02-25T14:00:17.644Z,35.51
2019-02-25T14:02:45.006Z,35.21
2019-02-25T14:05:11.981Z,33.52
2019-02-25T14:07:38.902Z,33.65
2019-02-25T14:10:07.644Z,33.90
2019-02-25T14:12:34.563Z,35.47
2019-02-25T14:15:01.507Z,35.85
2019-02-25T14:17:28.513Z,34.66
2019-02-25T14:19:55.663Z,35.36
2019-02-25T14:22:22.575Z,34.80
2019-02-25T14:24:49.624Z,36.50
2019-02-25T14:27:16.538Z,35.71
2019-02-25T14:29:44.664Z,35.91
2019-02-25T14:32:15.284Z,35.89
2019-02-25T14:34:44.458Z,35.01
2019-02-25T14:37:12.911Z,37.10
2019-02-25T14:39:40.869Z,34.98
2019-02-25T14:42:09.331Z,35.00
2019-02-25T14:44:38.142Z,35.15
2019-02-25T14:47:19.300Z,35.05
2019-02-25T14:49:35.228Z,36.12
2019-02-25T14:52:03.579Z,35.67
2019-02-25T14:54:32.264Z,35.79
2019-02-25T14:56:59.457Z,37.20
2019-02-25T14:59:26.400Z,36.84
2019-02-25T15:01:53.339Z,36.96
2019-02-25T15:04:20.248Z,36.81
2019-02-25T15:06:49.095Z,36.49
2019-02-25T15:09:16.324Z,37.29
2019-02-25T15:11:43.360Z,37.07
2019-02-25T15:14:11.123Z,35.74
2019-02-25T15:16:39.149Z,37.81
2019-02-25T15:19:06.056Z,38.14
2019-02-25T15:21:33.300Z,37.07
2019-02-25T15:24:02.557Z,37.96
2019-02-25T15:26:30.261Z,38.24
2019-02-25T15:28:58.638Z,38.08
2019-02-25T15:31:26.144Z,38.73
2019-02-25T15:33:53.160Z,38.25
2019-02-25T15:36:20.523Z,39.49
2019-02-25T15:38:48.958Z,39.42
2019-02-25T15:41:15.908Z,40.70
2019-02-25T15:43:42.815Z,39.98
2019-02-25T15:46:10.410Z,39.13
2019-02-25T15:48:39.800Z,39.67
2019-02-25T15:51:07.630Z,39.97
2019-02-25T15:53:34.543Z,40.14
2019-02-25T15:56:03.510Z,40.10
2019-02-25T15:58:30.492Z,40.92
2019-02-25T16:00:57.419Z,41.08
2019-02-25T16:03:24.638Z,41.69
2019-02-25T16:05:54.484Z,41.41
2019-02-25T16:08:21.267Z,42.86
2019-02-25T16:10:51.153Z,41.57
2019-02-25T16:13:18.177Z,41.17
2019-02-25T16:15:45.107Z,40.78
2019-02-25T16:18:14.060Z,40.85
2019-02-25T16:20:45.950Z,40.23
2019-02-25T16:23:11.113Z,40.79
2019-02-25T16:25:39.953Z,43.83
2019-02-25T16:28:08.152Z,46.54
2019-02-25T16:30:36.369Z,46.01
2019-02-25T16:33:04.850Z,45.67
2019-02-25T16:35:32.123Z,47.23
2019-02-25T16:38:00.329Z,48.98
2019-02-25T16:40:29.139Z,49.08
2019-02-25T16:42:59.388Z,48.79
2019-02-25T16:45:28.532Z,48.92
2019-02-25T16:47:54.463Z,49.26
2019-02-25T16:50:23.173Z,51.07
2019-02-25T16:52:50.242Z,50.34
2019-02-25T16:55:23.384Z,51.82
2019-02-25T16:57:51.135Z,51.40
2019-02-25T17:00:18.067Z,52.95
2019-02-25T17:02:45.066Z,54.22
2019-02-25T17:05:12.194Z,54.45
2019-02-25T17:07:40.490Z,56.42
2019-02-25T17:10:10.168Z,56.09
2019-02-25T17:12:37.226Z,54.33
2019-02-25T17:15:06.026Z,57.21
2019-02-25T17:17:33.007Z,56.97
2019-02-25T17:19:59.980Z,57.72
2019-02-25T17:22:26.980Z,57.87
2019-02-25T17:24:54.283Z,58.93
2019-02-25T17:27:22.756Z,57.97
2019-02-25T17:29:51.253Z,60.60
2019-02-25T17:32:19.406Z,59.57
2019-02-25T17:34:47.383Z,59.92
2019-02-25T17:37:14.823Z,60.84
2019-02-25T17:39:42.801Z,60.76
2019-02-25T17:42:10.165Z,60.77
2019-02-25T17:44:38.770Z,61.59
2019-02-25T17:47:06.651Z,62.38
2019-02-25T17:49:35.845Z,62.05
2019-02-25T17:52:03.523Z,62.14
2019-02-25T17:54:31.156Z,63.42
2019-02-25T17:56:59.314Z,62.36
2019-02-25T17:59:27.305Z,64.51
2019-02-25T18:01:54.779Z,63.55
2019-02-25T18:04:21.720Z,63.00
2019-02-25T18:06:48.676Z,64.10
2019-02-25T18:09:16.423Z,64.51
2019-02-25T18:11:45.456Z,63.74
2019-02-25T18:14:14.977Z,63.03
2019-02-25T18:16:46.120Z,63.53
2019-02-25T18:19:13.895Z,62.53
2019-02-25T18:21:42.988Z,62.86
2019-02-25T18:24:12.225Z,65.54
2019-02-25T18:26:38.748Z,65.08
2019-02-25T18:29:07.458Z,64.57
2019-02-25T18:31:34.631Z,65.35
2019-02-25T18:34:01.797Z,66.24
2019-02-25T18:36:29.428Z,65.74
2019-02-25T18:38:57.658Z,66.91
2019-02-25T18:41:25.432Z,65.77
2019-02-25T18:43:53.622Z,66.95
2019-02-25T18:46:21.222Z,67.25
2019-02-25T18:48:51.226Z,69.09
2019-02-25T18:51:18.460Z,69.01
2019-02-25T18:53:45.426Z,69.15
2019-02-25T18:56:14.154Z,67.72
2019-02-25T18:58:41.663Z,69.10
2019-02-25T19:01:11.055Z,70.59
2019-02-25T19:03:38.410Z,70.75
2019-02-25T19:06:05.527Z,70.65
2019-02-25T19:08:32.511Z,70.75
2019-02-25T19:10:59.425Z,72.12
2019-02-25T19:13:27.688Z,73.24
2019-02-25T19:15:56.895Z,74.53
2019-02-25T19:18:24.098Z,74.16
2019-02-25T19:20:51.200Z,74.65
2019-02-25T19:23:18.470Z,74.80
2019-02-25T19:25:45.411Z,74.81
2019-02-25T19:28:18.753Z,74.92
2019-02-25T19:30:43.674Z,75.24
2019-02-25T19:33:11.521Z,76.53
2019-02-25T19:35:40.706Z,77.29
2019-02-25T19:38:08.353Z,78.42
2019-02-25T19:40:40.262Z,78.01
2019-02-25T19:43:06.017Z,78.09
2019-02-25T19:45:34.314Z,78.48
2019-02-25T19:48:02.927Z,78.31
2019-02-25T19:50:32.367Z,78.69
2019-02-25T19:53:02.483Z,79.46
2019-02-25T19:55:28.993Z,79.34
2019-02-25T19:57:56.232Z,78.13
2019-02-25T20:00:27.633Z,76.98
2019-02-25T20:03:04.781Z,76.60
2019-02-25T20:05:24.497Z,79.41
2019-02-25T20:07:51.408Z,77.60
2019-02-25T20:10:18.778Z,76.60
2019-02-25T20:12:46.053Z,77.42
2019-02-25T20:15:18.167Z,79.37
2019-02-25T20:17:46.750Z,79.99
2019-02-25T20:20:15.042Z,78.97
2019-02-25T20:22:42.136Z,77.80
2019-02-25T20:25:10.764Z,77.18
2019-02-25T20:27:38.645Z,78.35
2019-02-25T20:30:08.588Z,77.38
2019-02-25T20:32:36.497Z,79.05
2019-02-25T20:35:05.399Z,77.93
2019-02-25T20:37:33.840Z,80.36
2019-02-25T20:40:01.331Z,79.24
2019-02-25T20:42:28.646Z,78.36
2019-02-25T20:44:57.517Z,78.64
2019-02-25T20:47:25.910Z,78.57
2019-02-25T20:49:55.655Z,79.04
2019-02-25T20:52:22.248Z,79.67
2019-02-25T20:54:49.644Z,80.50
2019-02-25T20:57:18.532Z,81.35
2019-02-25T20:59:47.159Z,81.58
2019-02-25T21:02:16.265Z,81.51
2019-02-25T21:04:43.879Z,82.03
2019-02-25T21:07:13.205Z,82.41
2019-02-25T21:09:42.155Z,82.96
2019-02-25T21:12:10.456Z,83.63
2019-02-25T21:14:40.294Z,83.40
2019-02-25T21:17:07.512Z,83.95
2019-02-25T21:19:36.135Z,85.32
2019-02-25T21:22:04.881Z,86.45
2019-02-25T21:24:33.629Z,86.35
2019-02-25T21:27:03.585Z,85.78
2019-02-25T21:29:31.858Z,85.25
2019-02-25T21:31:59.483Z,85.52
2019-02-25T21:34:28.607Z,86.03
2019-02-25T21:36:56.282Z,86.67
2019-02-25T21:39:24.548Z,85.20
2019-02-25T21:41:51.495Z,84.76
2019-02-25T21:44:19.480Z,85.92
2019-02-25T21:46:51.866Z,86.60
2019-02-25T21:49:16.560Z,86.35
2019-02-25T21:51:43.823Z,86.76
2019-02-25T21:54:12.658Z,86.50
2019-02-25T21:56:39.587Z,86.76
2019-02-25T21:59:08.276Z,86.10
2019-02-25T22:01:36.870Z,87.21
2019-02-25T22:04:04.199Z,87.09
2019-02-25T22:06:33.122Z,87.41
2019-02-25T22:09:00.767Z,86.23
2019-02-25T22:11:28.868Z,86.21
2019-02-25T22:13:55.799Z,87.17
2019-02-25T22:16:23.576Z,86.96
2019-02-25T22:18:52.052Z,88.05
2019-02-25T22:21:21.196Z,88.88
2019-02-25T22:23:49.471Z,88.72
2019-02-25T22:26:17.103Z,88.64
2019-02-25T22:28:44.042Z,88.79
2019-02-25T22:31:13.380Z,89.85
2019-02-25T22:33:39.949Z,89.29
2019-02-25T22:36:06.902Z,89.77
2019-02-25T22:38:33.825Z,89.78
2019-02-25T22:41:02.275Z,89.70
2019-02-25T22:43:29.403Z,89.88
2019-02-25T22:45:59.904Z,88.08
2019-02-25T22:48:25.178Z,89.26
2019-02-25T22:50:55.323Z,88.90
2019-02-25T22:53:20.904Z,87.61
2019-02-25T22:55:49.933Z,89.02
2019-02-25T22:58:17.145Z,88.68
2019-02-25T23:00:53.273Z,87.07
2019-02-25T23:03:22.640Z,86.91
2019-02-25T23:05:50.874Z,88.57
2019-02-25T23:08:20.677Z,89.47
2019-02-25T23:10:49.235Z,89.20
2019-02-25T23:13:15.785Z,89.34
2019-02-25T23:15:44.686Z,89.45
2019-02-25T23:18:13.894Z,89.80
2019-02-25T23:20:40.352Z,90.74
2019-02-25T23:23:07.262Z,90.32
2019-02-25T23:25:34.239Z,91.09
2019-02-25T23:28:02.280Z,91.21
2019-02-25T23:30:29.328Z,90.91
2019-02-25T23:32:56.240Z,91.41
2019-02-25T23:35:25.296Z,91.86
2019-02-25T23:37:54.499Z,91.67
2019-02-25T23:40:20.950Z,92.28
2019-02-25T23:42:49.100Z,93.26
2019-02-25T23:45:18.389Z,93.54
2019-02-25T23:47:45.111Z,93.93
2019-02-25T23:50:13.729Z,93.81
2019-02-25T23:52:40.767Z,93.04
2019-02-25T23:55:08.002Z,93.26
2019-02-25T23:57:35.376Z,93.44
